createdAt,value
2023-12-11T00:01:25.795Z,22.80
2023-12-11T00:04:20.400Z,22.90
2023-12-11T00:07:14.808Z,22.90
2023-12-11T00:10:09.874Z,23.00
2023-12-11T00:13:05.502Z,23.00
2023-12-11T00:16:00.784Z,23.20
2023-12-11T00:18:55.261Z,23.40
2023-12-11T00:21:49.873Z,23.80
2023-12-11T00:24:44.298Z,24.10
2023-12-11T00:27:39.131Z,24.50
2023-12-11T00:30:33.526Z,24.70
2023-12-11T00:33:27.989Z,24.90
2023-12-11T00:36:22.421Z,25.10
2023-12-11T00:39:18.551Z,25.30
2023-12-11T00:42:12.873Z,25.50
2023-12-11T00:45:08.031Z,25.50
2023-12-11T00:48:02.542Z,25.50
2023-12-11T00:50:57.038Z,25.60
2023-12-11T00:53:51.419Z,25.50
2023-12-11T00:56:45.749Z,25.50
2023-12-11T00:59:41.400Z,25.50
2023-12-11T01:02:35.822Z,25.50
2023-12-11T01:05:30.192Z,25.40
2023-12-11T01:08:25.314Z,25.50
2023-12-11T01:11:19.555Z,25.50
2023-12-11T01:14:13.886Z,25.60
2023-12-11T01:17:36.628Z,25.70
2023-12-11T01:20:22.540Z,25.70
2023-12-11T01:23:16.809Z,25.80
2023-12-11T01:26:11.796Z,25.90
2023-12-11T01:29:06.327Z,26.00
2023-12-11T01:32:00.886Z,26.10
2023-12-11T01:34:55.339Z,26.10
2023-12-11T01:37:49.658Z,26.20
2023-12-11T01:40:44.015Z,26.30
2023-12-11T01:43:38.411Z,26.40
2023-12-11T01:46:34.636Z,26.40
2023-12-11T01:49:29.273Z,26.40
2023-12-11T01:52:24.035Z,26.40
2023-12-11T01:55:18.570Z,26.50
2023-12-11T01:58:15.700Z,26.50
2023-12-11T02:01:11.106Z,26.60
2023-12-11T02:04:05.780Z,26.70
2023-12-11T02:07:00.869Z,26.70
2023-12-11T02:09:55.160Z,26.80
2023-12-11T02:12:49.574Z,26.90
2023-12-11T02:15:44.961Z,26.90
2023-12-11T02:18:39.854Z,26.80
2023-12-11T02:21:34.722Z,26.90
2023-12-11T02:24:35.565Z,26.90
2023-12-11T02:27:31.026Z,27.00
2023-12-11T02:30:25.619Z,27.00
2023-12-11T02:33:20.353Z,27.10
2023-12-11T02:36:14.895Z,27.20
2023-12-11T02:39:09.203Z,27.10
2023-12-11T02:42:03.629Z,27.20
2023-12-11T02:44:57.921Z,27.30
2023-12-11T02:47:52.344Z,27.40
2023-12-11T02:50:46.671Z,27.50
2023-12-11T02:53:41.121Z,27.60
2023-12-11T02:56:35.460Z,27.60
2023-12-11T02:59:29.783Z,27.70
2023-12-11T03:02:24.129Z,27.70
2023-12-11T03:05:18.666Z,27.70
2023-12-11T03:08:13.095Z,27.70
2023-12-11T03:11:07.515Z,27.80
2023-12-11T03:14:01.782Z,27.80
2023-12-11T03:16:56.068Z,27.90
2023-12-11T03:19:50.454Z,27.90
2023-12-11T03:22:45.448Z,28.00
2023-12-11T03:25:40.067Z,28.00
2023-12-11T03:28:34.993Z,28.10
2023-12-11T03:31:29.289Z,28.10
2023-12-11T03:34:23.655Z,28.20
2023-12-11T03:37:18.094Z,28.40
2023-12-11T03:40:13.204Z,28.50
2023-12-11T03:43:07.712Z,28.60
2023-12-11T03:46:02.663Z,28.60
2023-12-11T03:48:57.231Z,28.60
2023-12-11T03:51:51.708Z,28.60
2023-12-11T03:54:46.167Z,28.60
2023-12-11T03:57:40.879Z,28.60
2023-12-11T04:00:36.027Z,28.60
2023-12-11T04:03:30.609Z,28.60
2023-12-11T04:06:25.045Z,28.70
2023-12-11T04:09:19.812Z,28.70
2023-12-11T04:12:15.261Z,28.70
2023-12-11T04:15:10.639Z,28.60
2023-12-11T04:18:05.452Z,28.70
2023-12-11T04:21:00.811Z,28.80
2023-12-11T04:23:57.593Z,28.80
2023-12-11T04:26:52.424Z,28.80
2023-12-11T04:29:46.748Z,28.80
2023-12-11T04:32:41.106Z,28.70
2023-12-11T04:35:35.445Z,28.30
2023-12-11T04:38:29.702Z,27.60
2023-12-11T04:41:24.095Z,27.10
2023-12-11T04:44:18.553Z,26.50
2023-12-11T04:47:12.888Z,26.00
2023-12-11T04:50:07.774Z,25.70
2023-12-11T04:53:02.181Z,25.40
2023-12-11T04:55:56.626Z,25.10
2023-12-11T04:58:50.913Z,24.90
2023-12-11T05:01:45.397Z,24.90
2023-12-11T05:04:39.917Z,24.90
2023-12-11T05:07:34.431Z,25.00
2023-12-11T05:10:28.700Z,25.00
2023-12-11T05:13:22.998Z,24.90
2023-12-11T05:16:17.497Z,24.90
2023-12-11T05:19:11.959Z,24.80
2023-12-11T05:22:06.964Z,24.90
2023-12-11T05:25:01.345Z,24.80
2023-12-11T05:27:55.705Z,24.50
2023-12-11T05:30:50.119Z,24.40
2023-12-11T05:33:44.901Z,24.40
2023-12-11T05:36:39.347Z,24.40
2023-12-11T05:39:33.991Z,24.20
2023-12-11T05:42:28.407Z,24.10
2023-12-11T05:45:22.908Z,24.00
2023-12-11T05:48:18.812Z,23.90
2023-12-11T05:51:13.192Z,23.70
2023-12-11T05:54:07.572Z,23.50
2023-12-11T05:57:01.901Z,23.40
2023-12-11T05:59:56.213Z,23.40
2023-12-11T06:02:50.642Z,23.20
2023-12-11T06:05:45.258Z,23.20
2023-12-11T06:08:39.713Z,23.20
2023-12-11T06:11:34.224Z,23.20
2023-12-11T06:14:28.621Z,23.30
2023-12-11T06:17:23.142Z,23.30
2023-12-11T06:20:17.488Z,23.40
2023-12-11T06:23:11.957Z,23.40
2023-12-11T06:26:06.455Z,23.60
2023-12-11T06:29:03.994Z,23.70
2023-12-11T06:31:58.346Z,23.80
2023-12-11T06:34:53.078Z,23.80
2023-12-11T06:37:47.420Z,23.80
2023-12-11T06:40:41.703Z,23.90
2023-12-11T06:43:38.192Z,23.90
2023-12-11T06:46:32.575Z,23.90
2023-12-11T06:49:27.812Z,23.80
2023-12-11T06:52:22.346Z,23.70
2023-12-11T06:55:16.853Z,23.60
2023-12-11T06:58:11.287Z,23.60
2023-12-11T07:01:06.042Z,23.60
2023-12-11T07:04:00.776Z,23.60
2023-12-11T07:06:55.224Z,23.60
2023-12-11T07:09:49.940Z,23.60
2023-12-11T07:12:48.353Z,23.60
2023-12-11T07:15:43.259Z,23.60
2023-12-11T07:18:38.047Z,23.60
2023-12-11T07:21:33.337Z,23.60
2023-12-11T07:24:27.641Z,23.60
2023-12-11T07:27:22.040Z,23.60
2023-12-11T07:30:16.699Z,23.40
2023-12-11T07:33:13.910Z,23.30
2023-12-11T07:36:07.976Z,23.20
2023-12-11T07:39:02.373Z,23.20
2023-12-11T07:41:57.663Z,23.20
2023-12-11T07:44:52.039Z,23.20
2023-12-11T07:47:46.436Z,23.10
2023-12-11T07:50:41.696Z,23.20
2023-12-11T07:53:37.306Z,23.10
2023-12-11T07:56:32.383Z,23.10
2023-12-11T07:59:26.687Z,23.20
2023-12-11T08:02:21.263Z,23.20
2023-12-11T08:05:15.613Z,23.20
2023-12-11T08:08:09.960Z,23.30
2023-12-11T08:11:04.411Z,23.30
2023-12-11T08:14:00.127Z,23.30
2023-12-11T08:16:54.905Z,23.30
2023-12-11T08:19:49.449Z,23.30
2023-12-11T08:22:43.809Z,23.30
2023-12-11T08:25:38.114Z,23.30
2023-12-11T08:28:32.408Z,23.30
2023-12-11T08:31:26.876Z,23.30
2023-12-11T08:34:22.960Z,23.40
2023-12-11T08:37:17.804Z,23.40
2023-12-11T08:40:12.836Z,23.40
2023-12-11T08:43:07.398Z,23.40
2023-12-11T08:46:01.826Z,23.40
2023-12-11T08:48:56.245Z,23.30
2023-12-11T08:51:50.710Z,23.30
2023-12-11T08:54:45.161Z,23.30
2023-12-11T08:57:39.591Z,23.40
2023-12-11T09:00:33.937Z,23.40
2023-12-11T09:03:28.492Z,23.40
2023-12-11T09:06:22.938Z,23.40
2023-12-11T09:09:17.337Z,23.30
2023-12-11T09:12:22.856Z,23.20
2023-12-11T09:15:24.765Z,23.10
2023-12-11T09:18:19.204Z,23.10
2023-12-11T09:21:13.561Z,23.10
2023-12-11T09:24:08.238Z,23.10
2023-12-11T09:27:02.516Z,23.20
2023-12-11T09:29:57.152Z,23.20
2023-12-11T09:32:51.600Z,23.20
2023-12-11T09:35:46.515Z,23.20
2023-12-11T09:38:41.030Z,23.20
2023-12-11T09:41:36.878Z,23.20
2023-12-11T09:44:31.911Z,23.20
2023-12-11T09:47:51.009Z,23.20
2023-12-11T09:50:50.620Z,23.20
2023-12-11T09:53:45.951Z,23.20
2023-12-11T09:56:42.429Z,23.20
2023-12-11T09:59:36.893Z,23.20
2023-12-11T10:02:31.571Z,23.20
2023-12-11T10:05:27.845Z,23.20
2023-12-11T10:08:22.193Z,23.10
2023-12-11T10:11:21.635Z,23.10
2023-12-11T10:14:16.153Z,23.10
2023-12-11T10:17:20.353Z,23.10
2023-12-11T10:20:19.579Z,23.10
2023-12-11T10:23:20.875Z,23.10
2023-12-11T10:26:15.582Z,23.10
2023-12-11T10:29:36.213Z,23.00
2023-12-11T10:32:31.748Z,23.00
2023-12-11T10:35:26.711Z,23.00
2023-12-11T10:38:30.157Z,23.00
2023-12-11T10:41:29.125Z,23.00
2023-12-11T10:44:43.280Z,23.00
2023-12-11T10:47:43.491Z,23.00
2023-12-11T10:50:39.514Z,23.00
2023-12-11T10:53:35.831Z,23.00
2023-12-11T10:56:30.422Z,22.90
2023-12-11T10:59:25.473Z,22.90
2023-12-11T11:02:23.225Z,22.90
2023-12-11T11:05:18.311Z,22.90
2023-12-11T11:08:34.186Z,22.90
2023-12-11T11:11:40.170Z,23.00
2023-12-11T11:14:50.959Z,22.90
2023-12-11T11:18:04.122Z,22.90
2023-12-11T11:21:13.934Z,22.90
2023-12-11T11:24:30.983Z,22.90
2023-12-11T11:27:51.566Z,22.80
2023-12-11T11:30:48.946Z,22.80
2023-12-11T11:33:50.319Z,22.70
2023-12-11T11:36:49.576Z,22.70
2023-12-11T11:40:04.933Z,22.70
2023-12-11T11:42:59.454Z,22.70
2023-12-11T11:45:58.375Z,22.60
2023-12-11T11:48:52.976Z,22.50
2023-12-11T11:51:47.386Z,22.50
2023-12-11T11:54:43.021Z,22.60
2023-12-11T11:57:38.372Z,22.60
2023-12-11T12:00:33.717Z,22.60
2023-12-11T12:03:28.493Z,22.60
2023-12-11T12:06:23.511Z,22.60
2023-12-11T12:09:21.258Z,22.70
2023-12-11T12:12:18.700Z,22.60
2023-12-11T12:15:13.086Z,22.60
2023-12-11T12:18:11.003Z,22.60
2023-12-11T12:21:07.014Z,22.60
2023-12-11T12:24:07.383Z,22.70
2023-12-11T12:27:04.819Z,22.70
2023-12-11T12:29:59.765Z,22.60
2023-12-11T12:32:54.720Z,22.60
2023-12-11T12:35:51.142Z,22.60
2023-12-11T12:38:46.763Z,22.60
2023-12-11T12:41:41.283Z,22.60
2023-12-11T12:44:42.275Z,22.50
2023-12-11T12:47:36.786Z,22.50
2023-12-11T12:50:31.265Z,22.40
2023-12-11T12:53:27.556Z,22.40
2023-12-11T12:56:22.885Z,22.40
2023-12-11T12:59:17.535Z,22.50
2023-12-11T13:02:19.200Z,22.50
2023-12-11T13:05:14.321Z,22.40
2023-12-11T13:08:08.564Z,22.30
2023-12-11T13:11:03.211Z,22.30
2023-12-11T13:13:57.703Z,22.30
2023-12-11T13:16:52.304Z,22.30
2023-12-11T13:19:46.737Z,22.30
2023-12-11T13:22:42.124Z,22.30
2023-12-11T13:25:36.408Z,22.30
2023-12-11T13:28:31.207Z,22.30
2023-12-11T13:31:26.786Z,22.30
2023-12-11T13:34:21.318Z,22.30
2023-12-11T13:37:15.681Z,22.30
2023-12-11T13:40:10.731Z,22.30
2023-12-11T13:43:05.049Z,22.30
2023-12-11T13:45:59.309Z,22.20
2023-12-11T13:48:53.728Z,22.20
2023-12-11T13:51:48.170Z,22.30
2023-12-11T13:54:42.601Z,22.30
2023-12-11T13:57:37.098Z,22.30
2023-12-11T14:00:31.510Z,22.20
2023-12-11T14:03:25.829Z,22.20
2023-12-11T14:06:20.063Z,22.20
2023-12-11T14:09:15.222Z,22.30
2023-12-11T14:12:10.024Z,22.30
2023-12-11T14:15:04.497Z,22.30
2023-12-11T14:17:59.070Z,22.30
2023-12-11T14:20:54.346Z,22.30
2023-12-11T14:23:49.235Z,22.30
2023-12-11T14:26:48.051Z,22.30
2023-12-11T14:29:47.350Z,22.30
2023-12-11T14:32:41.967Z,22.30
2023-12-11T14:35:36.631Z,22.20
2023-12-11T14:38:31.212Z,22.10
2023-12-11T14:41:25.581Z,22.10
2023-12-11T14:44:20.457Z,22.10
2023-12-11T14:47:14.764Z,22.10
2023-12-11T14:50:09.846Z,22.10
2023-12-11T14:53:04.270Z,22.10
2023-12-11T14:55:59.071Z,22.10
2023-12-11T14:58:53.280Z,22.10
2023-12-11T15:01:50.469Z,22.10
2023-12-11T15:04:44.217Z,22.10
2023-12-11T15:07:39.024Z,22.10
2023-12-11T15:10:33.289Z,22.10
2023-12-11T15:13:27.902Z,22.10
2023-12-11T15:16:26.038Z,22.10
2023-12-11T15:19:20.731Z,22.10
2023-12-11T15:22:15.248Z,22.10
2023-12-11T15:25:13.402Z,22.10
2023-12-11T15:28:07.740Z,22.10
2023-12-11T15:31:13.040Z,22.10
2023-12-11T15:34:09.013Z,22.10
2023-12-11T15:37:07.005Z,22.10
2023-12-11T15:40:01.356Z,22.10
2023-12-11T15:42:56.240Z,22.10
2023-12-11T15:45:51.235Z,22.10
2023-12-11T15:48:48.611Z,22.10
2023-12-11T15:51:43.301Z,22.10
2023-12-11T15:54:38.376Z,22.10
2023-12-11T15:57:33.847Z,22.10
2023-12-11T16:00:29.186Z,22.10
2023-12-11T16:03:23.486Z,22.10
2023-12-11T16:06:18.112Z,22.10
2023-12-11T16:09:12.639Z,22.10
2023-12-11T16:12:07.273Z,22.00
2023-12-11T16:15:03.765Z,22.00
2023-12-11T16:17:58.277Z,22.00
2023-12-11T16:20:52.583Z,22.00
2023-12-11T16:23:46.841Z,22.00
2023-12-11T16:26:41.072Z,22.00
2023-12-11T16:29:37.555Z,22.00
2023-12-11T16:32:32.702Z,21.90
2023-12-11T16:35:27.260Z,21.90
2023-12-11T16:38:21.577Z,21.90
2023-12-11T16:41:28.787Z,22.00
2023-12-11T16:44:23.015Z,22.00
2023-12-11T16:47:17.279Z,22.00
2023-12-11T16:50:11.855Z,22.00
2023-12-11T16:53:06.902Z,22.00
2023-12-11T16:56:01.189Z,22.00
2023-12-11T16:58:56.030Z,22.00
2023-12-11T17:01:50.842Z,22.00
2023-12-11T17:04:47.264Z,22.00
2023-12-11T17:07:41.605Z,22.00
2023-12-11T17:10:36.108Z,22.00
2023-12-11T17:13:30.615Z,22.00
2023-12-11T17:16:25.161Z,22.00
2023-12-11T17:19:19.551Z,22.00
2023-12-11T17:22:14.051Z,22.00
2023-12-11T17:25:08.724Z,21.90
2023-12-11T17:28:05.428Z,21.90
2023-12-11T17:31:00.037Z,21.90
2023-12-11T17:33:54.438Z,21.90
2023-12-11T17:36:48.811Z,21.80
2023-12-11T17:39:43.157Z,21.80
2023-12-11T17:42:37.431Z,21.80
2023-12-11T17:45:31.752Z,21.80
2023-12-11T17:48:26.000Z,21.70
2023-12-11T17:51:20.809Z,21.80
2023-12-11T17:54:15.854Z,21.80
2023-12-11T17:57:11.979Z,21.80
2023-12-11T18:00:07.466Z,21.90
2023-12-11T18:03:01.983Z,21.90
2023-12-11T18:05:56.410Z,21.90
2023-12-11T18:08:50.678Z,21.90
2023-12-11T18:11:44.963Z,21.90
2023-12-11T18:14:39.195Z,21.90
2023-12-11T18:17:33.734Z,21.90
2023-12-11T18:20:28.311Z,21.90
2023-12-11T18:23:22.646Z,21.90
2023-12-11T18:26:16.910Z,21.80
2023-12-11T18:29:11.187Z,21.90
2023-12-11T18:32:05.634Z,21.90
2023-12-11T18:35:02.685Z,21.90
2023-12-11T18:37:56.964Z,21.90
2023-12-11T18:40:51.203Z,21.90
2023-12-11T18:43:45.814Z,21.80
2023-12-11T18:46:40.706Z,21.80
2023-12-11T18:49:35.143Z,21.80
2023-12-11T18:52:29.564Z,21.80
2023-12-11T18:55:23.952Z,21.80
2023-12-11T18:58:18.195Z,21.80
2023-12-11T19:01:14.835Z,21.80
2023-12-11T19:04:09.358Z,21.80
2023-12-11T19:07:04.034Z,21.80
2023-12-11T19:09:58.284Z,21.80
2023-12-11T19:12:54.282Z,21.70
2023-12-11T19:15:48.573Z,21.70
2023-12-11T19:18:43.146Z,21.80
2023-12-11T19:21:38.886Z,21.70
2023-12-11T19:24:34.017Z,21.70
2023-12-11T19:27:28.757Z,21.60
2023-12-11T19:30:23.127Z,21.70
2023-12-11T19:33:17.750Z,21.70
2023-12-11T19:36:12.343Z,21.70
2023-12-11T19:39:06.554Z,21.70
2023-12-11T19:42:00.977Z,21.60
2023-12-11T19:44:55.186Z,21.60
2023-12-11T19:47:49.934Z,21.70
2023-12-11T19:50:44.181Z,21.70
2023-12-11T19:53:38.414Z,21.70
2023-12-11T19:56:32.784Z,21.70
2023-12-11T19:59:26.973Z,21.70
2023-12-11T20:02:21.299Z,21.70
2023-12-11T20:05:15.779Z,21.70
2023-12-11T20:08:10.039Z,21.70
2023-12-11T20:11:04.284Z,21.60
2023-12-11T20:13:58.573Z,21.70
2023-12-11T20:16:52.810Z,21.70
2023-12-11T20:19:47.163Z,21.70
2023-12-11T20:22:41.473Z,21.80
2023-12-11T20:25:36.368Z,21.80
2023-12-11T20:28:31.285Z,21.80
2023-12-11T20:31:25.575Z,21.80
2023-12-11T20:34:20.112Z,21.80
2023-12-11T20:37:14.596Z,21.80
2023-12-11T20:40:09.781Z,21.70
2023-12-11T20:43:09.348Z,21.70
2023-12-11T20:46:08.081Z,21.70
2023-12-11T20:49:02.469Z,21.80
2023-12-11T20:51:56.963Z,21.70
2023-12-11T20:54:51.319Z,21.80
2023-12-11T20:57:45.676Z,21.70
2023-12-11T21:00:39.920Z,21.80
2023-12-11T21:03:34.507Z,21.70
2023-12-11T21:06:30.774Z,21.70
2023-12-11T21:09:25.139Z,21.70
2023-12-11T21:12:19.771Z,21.70
2023-12-11T21:15:14.349Z,21.60
2023-12-11T21:18:08.935Z,21.60
2023-12-11T21:21:04.232Z,21.60
2023-12-11T21:23:58.569Z,21.50
2023-12-11T21:26:52.933Z,21.50
2023-12-11T21:29:49.924Z,21.50
2023-12-11T21:32:44.923Z,21.50
2023-12-11T21:35:39.170Z,21.40
2023-12-11T21:38:33.475Z,21.40
2023-12-11T21:41:28.066Z,21.50
2023-12-11T21:44:22.556Z,21.50
2023-12-11T21:47:16.779Z,21.50
2023-12-11T21:50:11.561Z,21.50
2023-12-11T21:53:05.831Z,21.50
2023-12-11T21:56:00.170Z,21.50
2023-12-11T21:58:54.463Z,21.60
2023-12-11T22:01:48.894Z,21.60
2023-12-11T22:04:43.155Z,21.60
2023-12-11T22:07:37.484Z,21.60
2023-12-11T22:10:31.762Z,21.60
2023-12-11T22:13:26.162Z,21.60
2023-12-11T22:16:20.553Z,21.60
2023-12-11T22:19:15.097Z,21.60
2023-12-11T22:22:09.477Z,21.70
2023-12-11T22:25:03.729Z,21.70
2023-12-11T22:27:58.095Z,21.80
2023-12-11T22:30:52.378Z,21.80
2023-12-11T22:33:46.837Z,21.70
2023-12-11T22:36:41.408Z,21.80
2023-12-11T22:39:35.656Z,21.70
2023-12-11T22:42:30.015Z,21.70
2023-12-11T22:45:24.500Z,21.70
2023-12-11T22:48:19.634Z,21.70
2023-12-11T22:51:13.940Z,21.70
2023-12-11T22:54:08.172Z,21.70
2023-12-11T22:57:02.840Z,21.70
2023-12-11T22:59:57.125Z,21.80
2023-12-11T23:02:51.556Z,21.90
2023-12-11T23:05:45.878Z,22.00
2023-12-11T23:08:40.200Z,22.10
2023-12-11T23:11:34.430Z,22.10
2023-12-11T23:14:28.738Z,22.30
2023-12-11T23:17:23.382Z,22.50
2023-12-11T23:20:18.024Z,22.60
2023-12-11T23:23:12.318Z,22.80
2023-12-11T23:26:06.715Z,22.90
2023-12-11T23:29:01.022Z,23.00
2023-12-11T23:31:55.191Z,23.10
2023-12-11T23:34:49.487Z,23.10
2023-12-11T23:37:43.845Z,23.30
2023-12-11T23:40:38.411Z,23.50
2023-12-11T23:43:32.738Z,23.70
2023-12-11T23:46:27.079Z,23.80
2023-12-11T23:49:21.433Z,23.80
2023-12-11T23:52:15.693Z,23.90
2023-12-11T23:55:10.206Z,23.90
2023-12-11T23:58:04.627Z,23.80
